createdAt,value
2017-07-06T00:01:07.772Z,4.28
2017-07-06T00:03:35.278Z,4.05
2017-07-06T00:06:02.776Z,3.75
2017-07-06T00:08:30.266Z,4.07
2017-07-06T00:10:57.756Z,3.80
2017-07-06T00:13:25.269Z,4.15
2017-07-06T00:15:52.757Z,4.30
2017-07-06T00:18:20.255Z,4.07
2017-07-06T00:20:47.762Z,4.50
2017-07-06T00:23:15.265Z,4.18
2017-07-06T00:25:42.780Z,3.97
2017-07-06T00:28:10.284Z,3.92
2017-07-06T00:30:37.778Z,4.50
2017-07-06T00:33:05.274Z,3.85
2017-07-06T00:35:32.765Z,3.80
2017-07-06T00:38:00.253Z,3.60
2017-07-06T00:40:27.775Z,3.90
2017-07-06T00:42:55.270Z,4.12
2017-07-06T00:45:22.759Z,3.72
2017-07-06T00:47:50.317Z,3.78
2017-07-06T00:50:17.813Z,3.50
2017-07-06T00:52:45.307Z,3.62
2017-07-06T00:55:12.799Z,3.62
2017-07-06T00:57:40.301Z,3.25
2017-07-06T01:00:07.813Z,3.33
2017-07-06T01:02:35.329Z,3.00
2017-07-06T01:05:02.823Z,3.10
2017-07-06T01:07:30.326Z,3.30
2017-07-06T01:09:57.815Z,3.87
2017-07-06T01:12:25.350Z,3.22
2017-07-06T01:14:53.811Z,3.30
2017-07-06T01:17:21.309Z,3.20
2017-07-06T01:19:48.809Z,3.50
2017-07-06T01:22:16.301Z,3.12
2017-07-06T01:24:43.825Z,3.20
2017-07-06T01:27:11.320Z,3.20
2017-07-06T01:29:38.809Z,3.12
2017-07-06T01:32:06.408Z,3.45
2017-07-06T01:34:33.910Z,3.30
2017-07-06T01:37:01.427Z,3.45
2017-07-06T01:39:28.952Z,3.80
2017-07-06T01:41:56.445Z,3.67
2017-07-06T01:44:23.938Z,2.78
2017-07-06T01:46:51.438Z,3.62
2017-07-06T01:49:18.956Z,3.40
2017-07-06T01:51:46.458Z,3.75
2017-07-06T01:54:13.961Z,3.45
2017-07-06T01:56:41.454Z,3.55
2017-07-06T01:59:08.942Z,2.95
2017-07-06T02:01:36.477Z,3.30
2017-07-06T02:04:03.974Z,3.45
2017-07-06T02:06:31.464Z,3.65
2017-07-06T02:08:58.971Z,2.95
2017-07-06T02:11:26.469Z,3.42
2017-07-06T02:13:54.094Z,3.05
2017-07-06T02:16:21.609Z,3.90
2017-07-06T02:18:49.102Z,3.60
2017-07-06T02:21:16.594Z,3.35
2017-07-06T02:23:44.086Z,3.30
2017-07-06T02:26:13.561Z,3.50
2017-07-06T02:28:41.055Z,3.80
2017-07-06T02:31:08.565Z,4.12
2017-07-06T02:33:36.066Z,3.60
2017-07-06T02:36:03.552Z,3.05
2017-07-06T02:38:31.069Z,3.30
2017-07-06T02:40:58.582Z,3.25
2017-07-06T02:43:26.068Z,3.10
2017-07-06T02:45:53.563Z,3.47
2017-07-06T02:48:21.053Z,2.97
2017-07-06T02:50:48.575Z,2.80
2017-07-06T02:53:16.113Z,3.22
2017-07-06T02:55:43.621Z,2.87
2017-07-06T02:58:11.117Z,3.22
2017-07-06T03:00:38.613Z,3.12
2017-07-06T03:03:06.161Z,3.00
2017-07-06T03:05:34.598Z,3.40
2017-07-06T03:08:02.089Z,3.20
2017-07-06T03:10:29.599Z,3.47
2017-07-06T03:12:57.102Z,3.45
2017-07-06T03:15:24.625Z,3.08
2017-07-06T03:17:52.126Z,2.92
2017-07-06T03:20:19.627Z,3.55
2017-07-06T03:22:47.113Z,2.60
2017-07-06T03:25:14.609Z,2.70
2017-07-06T03:27:42.128Z,3.33
2017-07-06T03:30:09.638Z,3.42
2017-07-06T03:32:37.134Z,2.83
2017-07-06T03:35:04.637Z,2.97
2017-07-06T03:37:32.133Z,3.22
2017-07-06T03:39:59.651Z,2.50
2017-07-06T03:42:27.153Z,3.40
2017-07-06T03:44:54.649Z,2.47
2017-07-06T03:47:23.093Z,3.95
2017-07-06T03:49:51.544Z,2.72
2017-07-06T03:52:19.074Z,3.40
2017-07-06T03:54:46.573Z,3.00
2017-07-06T03:57:14.060Z,2.90
2017-07-06T03:59:41.548Z,2.60
2017-07-06T04:02:09.036Z,2.80
2017-07-06T04:04:36.542Z,2.72
2017-07-06T04:07:04.041Z,3.00
2017-07-06T04:09:31.535Z,3.05
2017-07-06T04:11:59.035Z,2.90
2017-07-06T04:14:26.525Z,3.22
2017-07-06T04:16:54.401Z,3.05
2017-07-06T04:19:21.891Z,2.90
2017-07-06T04:21:49.381Z,3.58
2017-07-06T04:24:16.886Z,3.03
2017-07-06T04:26:44.465Z,3.08
2017-07-06T04:29:12.987Z,2.70
2017-07-06T04:31:40.493Z,2.95
2017-07-06T04:34:07.993Z,2.80
2017-07-06T04:36:35.500Z,2.92
2017-07-06T04:39:02.997Z,3.37
2017-07-06T04:41:30.511Z,3.00
2017-07-06T04:43:58.009Z,2.55
2017-07-06T04:46:25.517Z,3.25
2017-07-06T04:48:53.018Z,3.20
2017-07-06T04:51:20.522Z,4.70
2017-07-06T04:53:48.041Z,3.40
2017-07-06T04:56:15.534Z,3.05
2017-07-06T04:58:43.026Z,3.05
2017-07-06T05:01:10.547Z,3.20
2017-07-06T05:03:38.038Z,3.00
2017-07-06T05:06:05.554Z,3.10
2017-07-06T05:08:33.049Z,3.30
2017-07-06T05:11:00.548Z,3.25
2017-07-06T05:13:28.044Z,3.17
2017-07-06T05:15:55.551Z,2.83
2017-07-06T05:18:23.084Z,2.80
2017-07-06T05:20:50.293Z,3.00
2017-07-06T05:23:17.505Z,2.70
2017-07-06T05:25:45.658Z,2.70
2017-07-06T05:28:12.870Z,3.07
2017-07-06T05:30:40.097Z,2.73
2017-07-06T05:33:07.308Z,2.53
2017-07-06T05:35:34.518Z,3.20
2017-07-06T05:38:01.726Z,3.03
2017-07-06T05:40:29.610Z,2.87
2017-07-06T05:42:56.834Z,3.23
2017-07-06T05:45:24.038Z,3.27
2017-07-06T05:47:51.244Z,2.80
2017-07-06T05:50:18.452Z,2.90
2017-07-06T05:52:45.671Z,3.37
2017-07-06T05:55:12.900Z,3.10
2017-07-06T05:57:40.111Z,3.20
2017-07-06T06:00:07.325Z,3.13
2017-07-06T06:02:34.549Z,2.77
2017-07-06T06:05:02.723Z,2.87
2017-07-06T06:07:29.929Z,2.67
2017-07-06T06:09:57.137Z,2.53
2017-07-06T06:12:24.345Z,3.10
2017-07-06T06:14:51.545Z,3.07
2017-07-06T06:17:18.753Z,2.67
2017-07-06T06:19:45.958Z,2.80
2017-07-06T06:22:13.156Z,2.67
2017-07-06T06:24:40.361Z,2.80
2017-07-06T06:27:07.575Z,3.60
2017-07-06T06:29:34.805Z,3.57
2017-07-06T06:32:02.013Z,3.03
2017-07-06T06:34:29.213Z,3.30
2017-07-06T06:36:56.432Z,2.90
2017-07-06T06:39:23.652Z,2.67
2017-07-06T06:41:53.534Z,2.87
2017-07-06T06:44:20.753Z,2.70
2017-07-06T06:46:47.966Z,2.80
2017-07-06T06:49:15.176Z,2.50
2017-07-06T06:51:42.379Z,2.60
2017-07-06T06:54:09.604Z,2.80
2017-07-06T06:56:36.809Z,2.50
2017-07-06T06:59:04.017Z,2.93
2017-07-06T07:01:31.225Z,2.77
2017-07-06T07:03:58.432Z,2.60
2017-07-06T07:06:25.657Z,2.93
2017-07-06T07:08:52.860Z,2.90
2017-07-06T07:11:21.017Z,2.90
2017-07-06T07:13:48.222Z,2.30
2017-07-06T07:16:15.438Z,3.00
2017-07-06T07:18:42.677Z,2.60
2017-07-06T07:21:09.896Z,2.70
2017-07-06T07:23:37.105Z,2.37
2017-07-06T07:26:04.318Z,2.60
2017-07-06T07:28:31.517Z,2.57
2017-07-06T07:31:00.713Z,2.80
2017-07-06T07:33:27.914Z,2.20
2017-07-06T07:35:55.120Z,2.67
2017-07-06T07:38:22.324Z,2.87
2017-07-06T07:40:49.524Z,2.73
2017-07-06T07:43:16.745Z,2.60
2017-07-06T07:45:43.957Z,3.10
2017-07-06T07:48:11.170Z,2.80
2017-07-06T07:50:38.369Z,2.80
2017-07-06T07:53:05.573Z,3.13
2017-07-06T07:55:32.817Z,3.20
2017-07-06T07:58:00.018Z,2.63
2017-07-06T08:00:27.233Z,3.00
2017-07-06T08:02:54.455Z,2.80
2017-07-06T08:05:21.665Z,2.50
2017-07-06T08:07:48.901Z,3.10
2017-07-06T08:10:16.121Z,2.90
2017-07-06T08:12:43.332Z,3.03
2017-07-06T08:15:10.542Z,3.30
2017-07-06T08:17:37.753Z,2.87
2017-07-06T08:20:04.974Z,2.60
2017-07-06T08:22:32.180Z,3.50
2017-07-06T08:24:59.382Z,2.93
2017-07-06T08:27:27.536Z,3.23
2017-07-06T08:29:54.737Z,2.83
2017-07-06T08:32:21.961Z,2.93
2017-07-06T08:34:49.166Z,3.60
2017-07-06T08:37:16.382Z,3.00
2017-07-06T08:39:43.597Z,3.37
2017-07-06T08:42:10.804Z,3.30
2017-07-06T08:44:38.031Z,2.90
2017-07-06T08:47:05.245Z,3.07
2017-07-06T08:49:32.463Z,3.50
2017-07-06T08:51:59.674Z,2.90
2017-07-06T08:54:27.828Z,2.50
2017-07-06T08:56:55.085Z,3.07
2017-07-06T08:59:22.301Z,3.07
2017-07-06T09:01:49.508Z,2.87
2017-07-06T09:04:16.712Z,2.70
2017-07-06T09:06:43.922Z,2.83
2017-07-06T09:09:11.150Z,2.83
2017-07-06T09:11:38.361Z,2.90
2017-07-06T09:14:06.327Z,3.30
2017-07-06T09:16:33.532Z,2.80
2017-07-06T09:19:01.673Z,2.67
2017-07-06T09:21:28.897Z,3.20
2017-07-06T09:23:56.103Z,3.00
2017-07-06T09:26:23.307Z,3.00
2017-07-06T09:28:50.515Z,2.53
2017-07-06T09:31:17.721Z,2.43
2017-07-06T09:33:44.952Z,3.00
2017-07-06T09:36:12.186Z,2.80
2017-07-06T09:38:39.388Z,2.47
2017-07-06T09:41:06.588Z,2.57
2017-07-06T09:43:33.788Z,2.70
2017-07-06T09:46:01.017Z,2.90
2017-07-06T09:48:28.225Z,3.00
2017-07-06T09:50:56.373Z,3.10
2017-07-06T09:53:23.582Z,2.50
2017-07-06T09:55:50.797Z,2.37
2017-07-06T09:58:17.842Z,3.30
2017-07-06T10:00:45.045Z,3.10
2017-07-06T10:03:12.254Z,2.67
2017-07-06T10:05:39.457Z,2.80
2017-07-06T10:08:06.665Z,2.50
2017-07-06T10:10:33.893Z,3.17
2017-07-06T10:13:01.101Z,2.67
2017-07-06T10:15:29.238Z,2.87
2017-07-06T10:17:56.445Z,3.20
2017-07-06T10:20:23.683Z,2.90
2017-07-06T10:22:50.920Z,3.03
2017-07-06T10:25:18.129Z,2.47
2017-07-06T10:27:45.333Z,2.77
2017-07-06T10:30:12.546Z,3.07
2017-07-06T10:32:39.750Z,3.00
2017-07-06T10:35:06.985Z,3.17
2017-07-06T10:37:34.190Z,3.20
2017-07-06T10:40:01.389Z,2.90
2017-07-06T10:42:28.594Z,2.47
2017-07-06T10:44:55.797Z,3.30
2017-07-06T10:47:23.029Z,2.97
2017-07-06T10:49:50.251Z,2.90
2017-07-06T10:52:17.466Z,3.07
2017-07-06T10:54:44.687Z,3.10
2017-07-06T10:57:11.898Z,2.73
2017-07-06T10:59:39.135Z,3.70
2017-07-06T11:02:06.340Z,2.80
2017-07-06T11:04:33.546Z,3.27
2017-07-06T11:07:00.795Z,2.93
2017-07-06T11:09:28.011Z,3.27
2017-07-06T11:11:55.233Z,3.27
2017-07-06T11:14:22.433Z,3.10
2017-07-06T11:16:49.641Z,2.40
2017-07-06T11:19:16.863Z,3.00
2017-07-06T11:21:44.278Z,3.00
2017-07-06T11:24:11.505Z,2.83
2017-07-06T11:26:39.641Z,3.00
2017-07-06T11:29:06.842Z,3.10
2017-07-06T11:31:34.049Z,2.87
2017-07-06T11:34:01.255Z,2.37
2017-07-06T11:36:29.493Z,2.30
2017-07-06T11:38:56.709Z,2.60
2017-07-06T11:41:23.913Z,2.30
2017-07-06T11:43:52.062Z,2.50
2017-07-06T11:46:19.265Z,2.40
2017-07-06T11:48:46.485Z,2.77
2017-07-06T11:51:13.694Z,2.37
2017-07-06T11:53:40.901Z,2.93
2017-07-06T11:56:08.107Z,2.40
2017-07-06T11:58:35.317Z,2.57
2017-07-06T12:01:03.132Z,2.00
2017-07-06T12:03:30.337Z,2.40
2017-07-06T12:05:57.558Z,2.43
2017-07-06T12:08:24.590Z,3.43
2017-07-06T12:10:51.800Z,2.60
2017-07-06T12:13:19.032Z,2.27
2017-07-06T12:15:46.234Z,2.50
2017-07-06T12:18:13.454Z,2.90
2017-07-06T12:20:40.664Z,2.20
2017-07-06T12:23:07.870Z,2.50
2017-07-06T12:25:35.112Z,2.30
2017-07-06T12:28:02.313Z,2.37
2017-07-06T12:30:29.521Z,2.53
2017-07-06T12:32:56.730Z,2.40
2017-07-06T12:35:23.945Z,2.20
2017-07-06T12:37:51.186Z,2.53
2017-07-06T12:40:19.355Z,2.63
2017-07-06T12:42:46.570Z,2.20
2017-07-06T12:45:13.797Z,2.00
2017-07-06T12:47:41.002Z,2.53
2017-07-06T12:50:08.220Z,2.40
2017-07-06T12:52:35.453Z,2.20
2017-07-06T12:55:02.654Z,1.87
2017-07-06T12:57:29.875Z,1.80
2017-07-06T12:59:58.030Z,2.07
2017-07-06T13:02:25.243Z,2.10
2017-07-06T13:04:52.459Z,2.50
2017-07-06T13:07:19.690Z,1.60
2017-07-06T13:09:46.952Z,1.90
2017-07-06T13:12:14.162Z,2.03
2017-07-06T13:14:41.373Z,2.30
2017-07-06T13:17:08.591Z,2.13
2017-07-06T13:19:37.741Z,2.10
2017-07-06T13:22:04.945Z,1.90
2017-07-06T13:24:32.149Z,1.73
2017-07-06T13:27:00.292Z,1.60
2017-07-06T13:29:27.509Z,1.67
2017-07-06T13:31:54.745Z,2.20
2017-07-06T13:34:22.886Z,2.00
2017-07-06T13:36:50.088Z,1.93
2017-07-06T13:39:17.294Z,2.17
2017-07-06T13:41:44.515Z,2.20
2017-07-06T13:44:11.743Z,1.80
2017-07-06T13:46:38.951Z,1.70
2017-07-06T13:49:06.154Z,2.27
2017-07-06T13:51:33.176Z,2.50
2017-07-06T13:54:01.140Z,1.80
2017-07-06T13:56:28.357Z,1.80
2017-07-06T13:58:55.566Z,1.87
2017-07-06T14:01:22.777Z,2.07
2017-07-06T14:03:49.989Z,1.70
2017-07-06T14:06:17.201Z,1.50
2017-07-06T14:08:44.440Z,1.90
2017-07-06T14:11:11.662Z,2.50
2017-07-06T14:13:38.873Z,1.60
2017-07-06T14:16:06.086Z,1.40
2017-07-06T14:18:33.304Z,1.70
2017-07-06T14:21:00.532Z,1.80
2017-07-06T14:23:27.741Z,1.80
2017-07-06T14:25:54.949Z,1.53
2017-07-06T14:28:22.149Z,1.80
2017-07-06T14:30:50.303Z,1.80
2017-07-06T14:33:17.538Z,2.10
2017-07-06T14:35:44.748Z,1.70
2017-07-06T14:38:11.953Z,1.67
2017-07-06T14:40:39.161Z,1.40
2017-07-06T14:43:06.369Z,1.63
2017-07-06T14:45:33.620Z,1.20
2017-07-06T14:48:00.832Z,1.70
2017-07-06T14:50:28.042Z,1.73
2017-07-06T14:52:55.262Z,1.73
2017-07-06T14:55:22.465Z,1.73
2017-07-06T14:57:49.699Z,2.00
2017-07-06T15:00:16.909Z,1.70
2017-07-06T15:02:45.081Z,1.50
2017-07-06T15:05:12.297Z,2.93
2017-07-06T15:07:39.502Z,1.90
2017-07-06T15:10:08.656Z,2.00
2017-07-06T15:12:35.862Z,1.97
2017-07-06T15:15:03.078Z,1.80
2017-07-06T15:17:30.284Z,1.77
2017-07-06T15:19:57.499Z,1.70
2017-07-06T15:22:24.724Z,1.70
2017-07-06T15:24:52.897Z,2.10
2017-07-06T15:27:20.110Z,1.70
2017-07-06T15:29:47.321Z,1.53
2017-07-06T15:32:14.534Z,1.77
2017-07-06T15:34:41.767Z,1.87
2017-07-06T15:37:09.014Z,1.67
2017-07-06T15:39:36.227Z,1.70
2017-07-06T15:42:03.453Z,2.23
2017-07-06T15:44:30.659Z,2.00
2017-07-06T15:46:59.834Z,1.80
2017-07-06T15:49:27.038Z,2.10
2017-07-06T15:51:54.253Z,1.60
2017-07-06T15:54:21.470Z,2.10
2017-07-06T15:56:48.693Z,2.00
2017-07-06T15:59:15.929Z,2.40
2017-07-06T16:01:43.151Z,1.80
2017-07-06T16:04:10.370Z,2.17
2017-07-06T16:06:37.572Z,2.10
2017-07-06T16:09:04.517Z,2.37
2017-07-06T16:11:31.750Z,2.60
2017-07-06T16:13:58.983Z,1.90
2017-07-06T16:16:26.199Z,2.13
2017-07-06T16:18:53.410Z,2.40
2017-07-06T16:21:20.637Z,2.60
2017-07-06T16:23:47.860Z,2.20
2017-07-06T16:26:15.064Z,2.23
2017-07-06T16:28:42.269Z,2.27
2017-07-06T16:31:09.473Z,2.43
2017-07-06T16:33:36.693Z,2.07
2017-07-06T16:36:03.929Z,2.40
2017-07-06T16:38:31.141Z,2.10
2017-07-06T16:40:58.352Z,2.30
2017-07-06T16:43:25.556Z,2.40
2017-07-06T16:45:52.783Z,2.23
2017-07-06T16:48:20.022Z,2.40
2017-07-06T16:50:47.241Z,1.90
2017-07-06T16:53:14.454Z,2.33
2017-07-06T16:55:41.664Z,2.20
2017-07-06T16:58:08.872Z,2.07
2017-07-06T17:00:36.113Z,2.60
2017-07-06T17:03:04.257Z,1.90
2017-07-06T17:05:31.474Z,2.03
2017-07-06T17:07:58.701Z,1.97
2017-07-06T17:10:25.915Z,2.00
2017-07-06T17:12:53.146Z,2.07
2017-07-06T17:15:21.285Z,1.80
2017-07-06T17:17:48.489Z,2.20
2017-07-06T17:20:15.693Z,2.47
2017-07-06T17:22:42.904Z,2.50
2017-07-06T17:25:10.136Z,2.70
2017-07-06T17:27:37.349Z,2.50
2017-07-06T17:30:15.036Z,2.70
2017-07-06T17:32:42.238Z,2.70
2017-07-06T17:35:10.412Z,2.77
2017-07-06T17:37:37.624Z,2.47
2017-07-06T17:40:04.842Z,2.80
2017-07-06T17:42:32.073Z,2.37
2017-07-06T17:44:59.297Z,2.60
2017-07-06T17:47:26.512Z,3.17
2017-07-06T17:49:53.734Z,2.30
2017-07-06T17:52:20.950Z,2.73
2017-07-06T17:54:48.174Z,2.33
2017-07-06T17:57:15.385Z,2.80
2017-07-06T17:59:42.598Z,2.70
2017-07-06T18:02:09.817Z,2.40
2017-07-06T18:04:37.034Z,2.57
2017-07-06T18:07:04.267Z,2.23
2017-07-06T18:09:31.480Z,3.43
2017-07-06T18:11:58.700Z,2.30
2017-07-06T18:14:25.910Z,3.07
2017-07-06T18:16:53.130Z,2.60
2017-07-06T18:19:20.364Z,2.33
2017-07-06T18:21:47.623Z,2.50
2017-07-06T18:24:15.770Z,2.07
2017-07-06T18:26:46.554Z,2.40
2017-07-06T18:29:13.837Z,2.97
2017-07-06T18:31:41.070Z,2.60
2017-07-06T18:34:08.281Z,2.77
2017-07-06T18:36:35.494Z,2.70
2017-07-06T18:39:02.707Z,2.43
2017-07-06T18:41:30.870Z,2.80
2017-07-06T18:43:58.093Z,2.33
2017-07-06T18:46:25.298Z,2.40
2017-07-06T18:48:52.501Z,2.40
2017-07-06T18:51:19.739Z,2.40
2017-07-06T18:53:46.962Z,2.37
2017-07-06T18:56:14.185Z,2.90
2017-07-06T18:58:41.405Z,2.23
2017-07-06T19:01:08.636Z,2.90
2017-07-06T19:03:35.852Z,2.50
2017-07-06T19:06:03.066Z,2.63
2017-07-06T19:08:31.254Z,2.80
2017-07-06T19:11:02.794Z,2.40
2017-07-06T19:13:30.047Z,2.53
2017-07-06T19:15:57.259Z,3.03
2017-07-06T19:18:25.405Z,2.70
2017-07-06T19:20:52.617Z,2.60
2017-07-06T19:23:20.260Z,3.00
2017-07-06T19:25:47.479Z,2.00
2017-07-06T19:28:16.777Z,2.00
2017-07-06T19:30:43.993Z,2.33
2017-07-06T19:33:11.220Z,3.37
2017-07-06T19:35:38.459Z,2.47
2017-07-06T19:38:05.682Z,2.43
2017-07-06T19:40:32.903Z,3.03
2017-07-06T19:43:00.111Z,2.97
2017-07-06T19:45:27.322Z,2.77
2017-07-06T19:47:54.554Z,2.90
2017-07-06T19:50:21.762Z,2.80
2017-07-06T19:52:49.954Z,3.17
2017-07-06T19:55:17.153Z,2.20
2017-07-06T19:57:44.369Z,3.00
2017-07-06T20:00:13.562Z,2.73
2017-07-06T20:02:40.770Z,2.73
2017-07-06T20:05:07.986Z,3.37
2017-07-06T20:07:35.190Z,2.70
2017-07-06T20:10:02.408Z,3.00
2017-07-06T20:12:29.653Z,2.80
2017-07-06T20:14:56.865Z,2.20
2017-07-06T20:17:29.326Z,2.77
2017-07-06T20:19:56.545Z,2.60
2017-07-06T20:22:23.753Z,2.70
2017-07-06T20:24:50.969Z,3.00
2017-07-06T20:27:18.182Z,2.70
2017-07-06T20:29:45.414Z,2.97
2017-07-06T20:32:12.622Z,2.60
2017-07-06T20:34:39.839Z,3.00
2017-07-06T20:37:07.049Z,2.80
2017-07-06T20:39:34.249Z,2.87
2017-07-06T20:42:01.530Z,2.60
2017-07-06T20:44:28.732Z,3.07
2017-07-06T20:46:56.886Z,3.17
2017-07-06T20:49:24.092Z,2.83
2017-07-06T20:51:51.301Z,2.90
2017-07-06T20:54:18.544Z,3.30
2017-07-06T20:56:45.748Z,2.77
2017-07-06T20:59:12.955Z,4.03
2017-07-06T21:01:40.160Z,3.13
2017-07-06T21:04:07.425Z,3.17
2017-07-06T21:06:34.714Z,4.07
2017-07-06T21:09:01.993Z,3.30
2017-07-06T21:11:29.268Z,3.20
2017-07-06T21:13:56.533Z,3.30
2017-07-06T21:16:23.745Z,3.23
2017-07-06T21:18:51.033Z,2.40
2017-07-06T21:21:18.302Z,3.20
2017-07-06T21:23:45.509Z,3.57
2017-07-06T21:26:12.846Z,2.83
2017-07-06T21:28:40.049Z,2.60
2017-07-06T21:31:07.272Z,3.27
2017-07-06T21:33:34.473Z,3.00
2017-07-06T21:36:01.681Z,3.00
2017-07-06T21:38:28.890Z,3.17
2017-07-06T21:40:56.100Z,3.03
2017-07-06T21:43:23.330Z,3.03
2017-07-06T21:45:50.549Z,3.13
2017-07-06T21:48:18.189Z,3.20
2017-07-06T21:50:45.392Z,3.23
2017-07-06T21:53:12.593Z,3.30
2017-07-06T21:55:39.818Z,3.07
2017-07-06T21:58:07.029Z,3.53
2017-07-06T22:00:34.234Z,3.30
2017-07-06T22:03:01.457Z,3.50
2017-07-06T22:05:28.667Z,3.37
2017-07-06T22:07:55.900Z,3.37
2017-07-06T22:10:23.108Z,3.00
2017-07-06T22:12:50.355Z,3.27
2017-07-06T22:15:17.573Z,3.10
2017-07-06T22:17:44.781Z,2.87
2017-07-06T22:20:12.000Z,3.10
2017-07-06T22:22:39.205Z,3.70
2017-07-06T22:25:06.410Z,3.20
2017-07-06T22:27:33.641Z,3.50
2017-07-06T22:30:00.837Z,3.57
2017-07-06T22:32:28.063Z,3.87
2017-07-06T22:34:55.278Z,3.30
2017-07-06T22:37:22.501Z,3.80
2017-07-06T22:39:49.704Z,3.43
2017-07-06T22:42:16.941Z,3.00
2017-07-06T22:44:46.112Z,3.10
2017-07-06T22:47:13.357Z,3.10
2017-07-06T22:49:40.556Z,3.50
2017-07-06T22:52:07.765Z,3.80
2017-07-06T22:54:34.974Z,3.50
2017-07-06T22:57:02.217Z,3.70
2017-07-06T22:59:29.419Z,3.53
2017-07-06T23:01:56.641Z,3.70
2017-07-06T23:04:23.902Z,3.23
2017-07-06T23:06:51.146Z,3.70
2017-07-06T23:09:18.370Z,3.70
2017-07-06T23:11:45.619Z,3.23
2017-07-06T23:14:13.766Z,3.10
2017-07-06T23:16:40.977Z,3.60
2017-07-06T23:19:08.205Z,3.70
2017-07-06T23:21:35.760Z,3.67
2017-07-06T23:24:03.260Z,3.55
2017-07-06T23:26:31.426Z,3.20
2017-07-06T23:28:58.647Z,3.43
2017-07-06T23:31:25.854Z,3.97
2017-07-06T23:33:53.084Z,3.30
2017-07-06T23:36:20.581Z,4.10
2017-07-06T23:38:48.073Z,2.83
2017-07-06T23:41:15.278Z,3.90
2017-07-06T23:43:42.484Z,3.70
2017-07-06T23:46:10.006Z,3.60
2017-07-06T23:48:37.223Z,3.37
2017-07-06T23:51:04.449Z,3.57
2017-07-06T23:53:31.663Z,3.60
2017-07-06T23:55:58.862Z,3.80
2017-07-06T23:58:26.091Z,3.67
